Time;durP1;ratioP1;P1;durP2;ratioP2;P2;SDS_P1;SDS_P2;PMS_P1;PMS_P2;Temp;Humidity;BMP_temperature;BMP_pressure;BME280_temperature;BME280_humidity;BME280_pressure;Samples;Min_cycle;Max_cycle;Signal;HPM_P1;HPM_P2
2021/07/11 00:01:47;;;;;;;6.88;4.55;;;;;;;16.12;68.87;96428.34;5053100;28;20024;-63
2021/07/11 00:04:13;;;;;;;5.25;4.75;;;;;;;16.11;68.94;96424.88;5053208;28;20025;-63
2021/07/11 00:06:38;;;;;;;8.20;4.72;;;;;;;16.07;69.10;96422.53;5053107;28;20067;-65
2021/07/11 00:09:05;;;;;;;15.70;5.03;;;;;;;16.03;69.25;96424.50;5053015;28;20026;-65
2021/07/11 00:11:31;;;;;;;5.03;4.53;;;;;;;16.03;69.36;96422.72;5052994;28;20040;-63
2021/07/11 00:14:00;;;;;;;9.70;4.78;;;;;;;16.03;69.35;96420.06;5053003;28;20013;-64
2021/07/11 00:16:29;;;;;;;8.85;4.35;;;;;;;16.02;69.51;96422.81;5052929;28;20052;-60
2021/07/11 00:18:55;;;;;;;5.15;4.53;;;;;;;15.99;69.60;96425.63;5053084;28;20505;-63
2021/07/11 00:21:21;;;;;;;5.95;4.90;;;;;;;15.90;70.14;96422.56;5052937;28;20383;-64
2021/07/11 00:23:47;;;;;;;5.50;4.88;;;;;;;15.81;70.16;96415.25;5052846;28;20031;-62
2021/07/11 00:26:12;;;;;;;7.53;4.80;;;;;;;15.83;69.94;96404.59;5052958;28;20031;-63
2021/07/11 00:28:39;;;;;;;5.82;4.80;;;;;;;15.75;70.16;96402.44;5052905;28;20445;-64
2021/07/11 00:31:04;;;;;;;9.60;5.20;;;;;;;15.74;70.42;96392.84;5052924;28;20028;-62
2021/07/11 00:33:30;;;;;;;7.20;5.30;;;;;;;15.73;70.45;96397.25;5053021;28;20013;-63
2021/07/11 00:35:55;;;;;;;7.13;4.80;;;;;;;15.75;70.50;96386.59;5052897;28;20382;-61
2021/07/11 00:38:21;;;;;;;7.03;4.55;;;;;;;15.72;70.47;96389.44;5052833;28;20021;-60
2021/07/11 00:40:47;;;;;;;9.27;5.22;;;;;;;15.68;70.53;96388.75;5052682;28;20364;-61
2021/07/11 00:43:12;;;;;;;5.78;4.55;;;;;;;15.65;70.49;96384.53;5052848;28;20096;-63
2021/07/11 00:45:38;;;;;;;6.70;5.03;;;;;;;15.72;70.22;96378.88;5052780;28;20558;-64
2021/07/11 00:48:04;;;;;;;5.97;5.03;;;;;;;15.75;70.09;96374.25;5052805;28;20032;-62
2021/07/11 00:50:30;;;;;;;12.98;6.00;;;;;;;15.70;70.34;96378.13;5052549;28;20490;-61
2021/07/11 00:52:56;;;;;;;7.82;4.72;;;;;;;15.70;70.16;96378.97;5052657;28;20013;-64
2021/07/11 00:55:23;;;;;;;5.70;4.50;;;;;;;15.74;70.17;96369.94;5052626;28;20021;-64
2021/07/11 00:57:49;;;;;;;8.60;4.43;;;;;;;15.71;69.76;96369.28;5052625;28;20057;-64
2021/07/11 01:00:16;;;;;;;7.45;4.80;;;;;;;15.67;70.33;96365.97;5052756;28;20075;-65
2021/07/11 01:02:50;;;;;;;7.15;5.03;;;;;;;15.68;70.37;96362.38;5055028;28;20041;-63
2021/07/11 01:05:16;;;;;;;8.23;4.43;;;;;;;15.69;70.25;96365.88;5056460;28;20025;-66
2021/07/11 01:07:58;;;;;;;5.03;4.53;;;;;;;15.63;70.23;96354.75;5056480;28;20483;-64
2021/07/11 01:10:31;;;;;;;4.78;4.28;;;;;;;15.62;70.08;96355.72;5056458;28;20067;-64
2021/07/11 01:12:58;;;;;;;6.30;4.95;;;;;;;15.56;70.47;96350.81;5056417;28;20028;-65
2021/07/11 01:15:24;;;;;;;8.75;4.68;;;;;;;15.57;70.52;96354.31;5056235;28;20028;-63
2021/07/11 01:17:58;;;;;;;7.05;4.95;;;;;;;15.58;70.36;96348.09;5056329;28;20013;-61
2021/07/11 01:20:41;;;;;;;4.88;4.28;;;;;;;15.58;70.14;96350.72;5056127;28;20057;-63
2021/07/11 01:23:09;;;;;;;6.68;4.78;;;;;;;15.52;70.17;96355.44;5056201;28;20033;-64
2021/07/11 01:25:42;;;;;;;7.40;4.82;;;;;;;15.49;70.05;96357.41;5056135;28;20044;-64
2021/07/11 01:28:12;;;;;;;8.80;4.75;;;;;;;15.52;70.75;96357.22;5055996;28;20025;-63
2021/07/11 01:30:39;;;;;;;4.93;4.53;;;;;;;15.52;70.59;96359.84;5055934;28;20712;-62
2021/07/11 01:33:07;;;;;;;6.93;4.03;;;;;;;15.55;70.46;96359.66;5055780;28;20021;-63
2021/07/11 01:35:34;;;;;;;7.78;4.38;;;;;;;15.59;70.39;96360.34;5055837;28;20483;-64
2021/07/11 01:38:00;;;;;;;5.82;4.15;;;;;;;15.58;70.13;96361.25;5055947;28;20029;-63
2021/07/11 01:40:29;;;;;;;6.63;4.05;;;;;;;15.55;69.94;96364.94;5054340;28;20056;-64
2021/07/11 01:42:56;;;;;;;6.45;4.43;;;;;;;15.50;70.22;96364.38;5055605;28;20017;-62
2021/07/11 01:45:21;;;;;;;6.25;5.00;;;;;;;15.44;69.79;96372.66;5055705;28;20021;-61
2021/07/11 01:47:47;;;;;;;11.18;4.35;;;;;;;15.37;70.59;96359.84;5055800;28;20029;-66
2021/07/11 01:50:13;;;;;;;5.30;4.80;;;;;;;15.35;70.76;96364.34;5055303;28;20041;-62
2021/07/11 01:52:40;;;;;;;5.85;4.47;;;;;;;15.33;70.64;96362.75;5055518;28;20349;-62
2021/07/11 01:55:07;;;;;;;6.13;3.97;;;;;;;15.28;70.73;96366.53;5055359;28;20029;-65
2021/07/11 01:57:36;;;;;;;4.95;4.10;;;;;;;15.18;70.93;96361.88;5055383;28;20429;-61
2021/07/11 02:00:15;;;;;;;6.00;4.25;;;;;;;15.20;71.14;96362.66;5055332;28;20063;-60
2021/07/11 02:02:47;;;;;;;8.27;5.00;;;;;;;15.18;71.41;96367.16;5055307;28;20043;-65
2021/07/11 02:05:15;;;;;;;5.60;4.60;;;;;;;15.16;71.30;96370.75;5055206;28;20108;-61
2021/07/11 02:07:40;;;;;;;5.07;4.40;;;;;;;15.11;71.70;96367.53;5055258;28;20021;-62
2021/07/11 02:10:08;;;;;;;8.63;4.72;;;;;;;15.13;71.43;96365.66;5055245;28;20435;-65
2021/07/11 02:12:40;;;;;;;7.13;4.55;;;;;;;15.16;71.41;96369.88;5054761;28;20379;-64
2021/07/11 02:15:07;;;;;;;5.20;3.75;;;;;;;15.15;71.19;96362.94;5054525;28;20068;-62
2021/07/11 02:17:39;;;;;;;7.55;4.55;;;;;;;15.16;71.50;96367.25;5055144;28;20029;-63
2021/07/11 02:20:06;;;;;;;5.60;4.30;;;;;;;15.12;71.40;96371.00;5055019;28;20025;-61
2021/07/11 02:22:34;;;;;;;6.03;4.47;;;;;;;15.18;71.36;96362.75;5054852;28;20494;-63
2021/07/11 02:25:00;;;;;;;5.93;4.47;;;;;;;15.20;71.23;96368.75;5054901;28;20033;-62
2021/07/11 02:27:25;;;;;;;6.28;4.88;;;;;;;15.23;70.71;96365.09;5054954;28;20424;-60
2021/07/11 02:29:55;;;;;;;6.35;5.07;;;;;;;15.26;70.91;96363.13;5054823;28;20025;-66
2021/07/11 02:32:24;;;;;;;4.00;3.10;;;;;;;15.24;70.76;96367.66;5055089;28;20033;-62
2021/07/11 02:34:50;;;;;;;6.07;4.53;;;;;;;15.14;70.82;96369.16;5054993;28;20537;-64
2021/07/11 02:37:19;;;;;;;9.23;4.25;;;;;;;15.06;71.13;96364.31;5054829;28;20109;-66
2021/07/11 02:39:49;;;;;;;6.13;4.20;;;;;;;14.99;71.17;96366.44;5054771;28;20021;-63
2021/07/11 02:42:17;;;;;;;4.40;4.00;;;;;;;14.98;71.46;96367.41;5054655;28;20062;-61
2021/07/11 02:44:49;;;;;;;4.60;4.05;;;;;;;14.95;71.33;96371.97;5054491;28;20014;-65
2021/07/11 02:47:24;;;;;;;7.88;4.50;;;;;;;14.96;71.55;96371.06;5054629;28;20024;-64
2021/07/11 02:49:52;;;;;;;5.20;4.55;;;;;;;14.90;71.48;96369.66;5054397;28;20048;-63
2021/07/11 02:52:21;;;;;;;9.43;4.57;;;;;;;14.89;71.58;96371.44;5054409;28;20467;-63
2021/07/11 02:54:57;;;;;;;6.93;4.97;;;;;;;14.87;71.86;96377.72;5054434;28;20386;-63
2021/07/11 02:57:28;;;;;;;5.90;5.00;;;;;;;14.86;71.77;96378.63;5054404;28;20031;-62
2021/07/11 02:59:54;;;;;;;5.13;4.65;;;;;;;14.77;71.79;96380.84;5054422;28;20024;-63
2021/07/11 03:02:22;;;;;;;5.90;4.38;;;;;;;14.78;71.87;96372.03;5054109;28;20557;-64
2021/07/11 03:04:50;;;;;;;4.85;4.32;;;;;;;14.77;72.12;96386.13;5054057;28;20021;-60
2021/07/11 03:07:16;;;;;;;6.32;4.20;;;;;;;14.82;71.97;96383.25;5054054;28;20024;-64
2021/07/11 03:09:42;;;;;;;4.97;3.70;;;;;;;14.86;72.00;96384.75;5054044;28;20104;-63
2021/07/11 03:12:09;;;;;;;5.43;4.15;;;;;;;14.93;71.91;96382.59;5054166;28;20436;-62
2021/07/11 03:14:37;;;;;;;5.53;3.97;;;;;;;14.97;71.46;96396.47;5053980;28;20348;-60
2021/07/11 03:17:03;;;;;;;5.05;3.97;;;;;;;14.94;71.89;96392.22;5053862;28;20520;-63
2021/07/11 03:19:30;;;;;;;5.82;4.70;;;;;;;15.01;71.75;96388.28;5053802;28;20036;-61
2021/07/11 03:21:57;;;;;;;4.60;4.10;;;;;;;15.05;71.68;96393.38;5053852;28;20055;-61
2021/07/11 03:24:29;;;;;;;5.57;4.25;;;;;;;15.03;71.69;96393.47;5053515;28;20021;-63
2021/07/11 03:26:56;;;;;;;4.88;4.25;;;;;;;15.06;71.60;96395.94;5053895;28;20025;-64
2021/07/11 03:29:51;;;;;;;7.22;4.60;;;;;;;15.06;71.79;96384.53;5053662;28;20017;-61
2021/07/11 03:32:19;;;;;;;5.72;4.82;;;;;;;15.08;72.22;96391.41;5053648;28;20028;-62
2021/07/11 03:34:47;;;;;;;7.25;4.57;;;;;;;15.12;71.94;96387.69;5053572;28;20021;-63
2021/07/11 03:37:14;;;;;;;7.55;4.68;;;;;;;15.36;72.03;96389.78;5053585;28;20021;-63
2021/07/11 03:39:47;;;;;;;4.90;4.00;;;;;;;15.66;70.90;96385.38;5053522;28;20090;-63
2021/07/11 03:42:14;;;;;;;4.65;4.25;;;;;;;15.97;69.99;96393.22;5053405;28;20033;-63
2021/07/11 03:44:42;;;;;;;4.20;3.80;;;;;;;16.34;69.28;96392.69;5053553;28;20095;-64
2021/07/11 03:47:10;;;;;;;4.15;3.75;;;;;;;16.76;68.02;96390.84;5053311;28;20048;-61
2021/07/11 03:49:39;;;;;;;4.50;3.60;;;;;;;17.16;67.00;96395.31;5053139;28;20053;-65
2021/07/11 03:52:07;;;;;;;7.15;3.55;;;;;;;17.57;66.04;96399.72;5053307;28;20025;-62
2021/07/11 03:54:35;;;;;;;3.33;3.03;;;;;;;18.02;64.96;96399.22;5053205;28;20107;-60
2021/07/11 03:57:01;;;;;;;9.30;3.75;;;;;;;18.42;63.45;96406.16;5053320;28;20021;-67
2021/07/11 03:59:29;;;;;;;5.47;3.63;;;;;;;18.78;62.92;96400.97;5053190;28;20032;-62
2021/07/11 04:01:55;;;;;;;4.45;3.10;;;;;;;19.11;61.66;96406.53;5053170;28;20478;-64
2021/07/11 04:04:23;;;;;;;5.57;3.53;;;;;;;19.42;61.20;96398.91;5053156;28;20048;-62
2021/07/11 04:06:52;;;;;;;5.57;3.35;;;;;;;19.78;60.30;96406.81;5053127;28;20028;-64
2021/07/11 04:09:20;;;;;;;3.17;2.88;;;;;;;20.14;59.56;96402.25;5053148;28;20391;-66
2021/07/11 04:11:46;;;;;;;3.83;3.42;;;;;;;20.51;58.53;96403.78;5053139;28;20040;-66
2021/07/11 04:14:20;;;;;;;4.90;3.50;;;;;;;20.91;58.27;96404.16;5053096;28;20056;-62
2021/07/11 04:16:53;;;;;;;3.53;2.97;;;;;;;21.28;57.56;96406.41;5052961;28;20033;-65
2021/07/11 04:19:28;;;;;;;5.20;3.05;;;;;;;21.72;56.49;96408.09;5052949;28;20100;-61
2021/07/11 04:21:56;;;;;;;6.88;3.00;;;;;;;22.08;55.84;96405.94;5052871;28;20064;-67
2021/07/11 04:24:22;;;;;;;4.25;2.88;;;;;;;22.47;56.21;96407.88;5053020;28;20075;-66
2021/07/11 04:26:49;;;;;;;3.40;2.80;;;;;;;22.84;54.34;96405.56;5052995;28;20028;-65
2021/07/11 04:29:16;;;;;;;3.92;3.10;;;;;;;23.17;53.41;96407.94;5052875;28;20021;-63
2021/07/11 04:31:43;;;;;;;5.68;3.03;;;;;;;23.51;52.80;96401.38;5052904;28;20379;-64
2021/07/11 04:34:29;;;;;;;4.10;3.20;;;;;;;23.91;52.36;96412.78;5052758;28;20025;-62
2021/07/11 04:36:57;;;;;;;10.73;3.45;;;;;;;24.28;52.40;96409.28;5054032;28;20075;-65
2021/07/11 04:39:22;;;;;;;8.15;3.30;;;;;;;24.55;51.11;96412.09;5056943;28;20155;-67
2021/07/11 04:41:49;;;;;;;3.95;3.05;;;;;;;24.90;51.70;96401.63;5056755;28;20112;-63
2021/07/11 04:44:15;;;;;;;4.93;3.35;;;;;;;25.18;50.47;96402.41;5056704;28;20028;-66
2021/07/11 04:46:41;;;;;;;4.45;2.97;;;;;;;25.44;49.99;96408.81;5056764;28;20021;-67
2021/07/11 04:49:07;;;;;;;3.40;2.97;;;;;;;25.78;50.03;96404.53;5056658;28;20114;-64
2021/07/11 04:51:33;;;;;;;3.80;3.10;;;;;;;26.11;49.18;96407.41;5056856;28;20479;-66
2021/07/11 04:53:59;;;;;;;3.22;2.92;;;;;;;26.45;49.11;96405.72;5056564;28;20356;-65
2021/07/11 04:56:25;;;;;;;6.35;3.10;;;;;;;26.70;47.48;96416.53;5056525;28;20088;-64
2021/07/11 04:58:51;;;;;;;3.65;3.35;;;;;;;26.82;47.36;96409.84;5056592;28;20112;-64
2021/07/11 05:01:16;;;;;;;4.72;2.53;;;;;;;26.86;47.62;96413.06;5056518;28;20029;-63
2021/07/11 05:03:42;;;;;;;5.28;3.03;;;;;;;27.07;47.54;96417.13;5056464;28;20071;-68
2021/07/11 05:06:08;;;;;;;3.95;3.30;;;;;;;27.38;47.58;96411.97;5056540;28;20018;-64
2021/07/11 05:08:33;;;;;;;3.58;3.08;;;;;;;27.74;47.68;96404.56;5056401;28;20028;-62
2021/07/11 05:10:59;;;;;;;3.17;2.60;;;;;;;28.08;45.90;96408.03;5056419;28;20102;-64
2021/07/11 05:13:25;;;;;;;4.20;3.00;;;;;;;28.32;46.91;96401.75;5056280;28;20029;-68
2021/07/11 05:15:50;;;;;;;3.88;2.90;;;;;;;28.59;47.88;96404.16;5056137;28;20430;-67
2021/07/11 05:18:16;;;;;;;3.80;3.17;;;;;;;28.73;44.61;96403.41;5056088;28;20392;-69
2021/07/11 05:20:42;;;;;;;9.60;2.60;;;;;;;28.79;44.30;96409.06;5055973;28;20023;-65
2021/07/11 05:23:07;;;;;;;5.40;2.97;;;;;;;28.99;43.82;96404.94;5056274;28;20021;-67
2021/07/11 05:25:33;;;;;;;3.75;2.92;;;;;;;29.24;45.73;96403.94;5056025;28;20028;-67
2021/07/11 05:28:03;;;;;;;5.85;2.88;;;;;;;29.45;46.31;96402.41;5055923;28;20111;-67
2021/07/11 05:30:29;;;;;;;4.07;2.83;;;;;;;29.72;46.00;96403.72;5056046;28;20021;-67
2021/07/11 05:32:55;;;;;;;5.07;2.88;;;;;;;29.96;45.05;96395.56;5055838;28;20048;-65
2021/07/11 05:35:21;;;;;;;4.25;2.63;;;;;;;30.13;45.30;96394.34;5056026;28;20478;-64
2021/07/11 05:37:46;;;;;;;4.68;2.83;;;;;;;30.37;44.06;96402.38;5055878;28;20109;-66
2021/07/11 05:40:15;;;;;;;3.83;2.80;;;;;;;30.56;43.80;96400.94;5055780;28;20060;-64
2021/07/11 05:42:44;;;;;;;5.60;3.00;;;;;;;30.77;43.87;96400.19;5055822;28;20068;-67
2021/07/11 05:45:11;;;;;;;3.78;2.97;;;;;;;31.01;43.18;96403.56;5055777;28;20024;-65
2021/07/11 05:47:38;;;;;;;5.03;2.92;;;;;;;31.20;42.29;96403.94;5055496;28;20021;-65
2021/07/11 05:50:05;;;;;;;3.78;2.92;;;;;;;31.37;41.89;96401.00;5054268;28;20053;-64
2021/07/11 05:52:31;;;;;;;5.00;2.90;;;;;;;31.54;42.81;96401.53;5055599;28;20374;-64
2021/07/11 05:54:56;;;;;;;8.07;3.08;;;;;;;31.77;40.58;96401.31;5055458;28;20025;-67
2021/07/11 05:57:22;;;;;;;6.75;2.85;;;;;;;31.93;41.81;96396.66;5055499;28;20025;-67
2021/07/11 05:59:47;;;;;;;6.20;2.88;;;;;;;31.98;39.93;96396.91;5055534;28;20486;-67
2021/07/11 06:02:13;;;;;;;4.03;2.95;;;;;;;32.04;37.80;96397.97;5055458;28;20352;-64
2021/07/11 06:04:39;;;;;;;4.22;3.00;;;;;;;32.08;39.61;96393.84;5055503;28;20040;-67
2021/07/11 06:07:04;;;;;;;3.80;2.60;;;;;;;32.28;39.50;96398.53;5055268;28;20498;-64
2021/07/11 06:09:30;;;;;;;5.68;3.13;;;;;;;32.44;39.63;96393.81;5055242;28;20052;-66
2021/07/11 06:11:56;;;;;;;8.45;2.92;;;;;;;32.58;37.32;96394.72;5055286;28;20505;-62
2021/07/11 06:14:21;;;;;;;6.97;3.05;;;;;;;32.72;40.10;96396.44;5055211;28;20017;-66
2021/07/11 06:16:47;;;;;;;6.93;3.40;;;;;;;32.61;36.44;96397.03;5055147;28;20032;-68
2021/07/11 06:19:14;;;;;;;7.40;3.35;;;;;;;32.62;36.52;96393.25;5055079;28;20383;-64
2021/07/11 06:21:39;;;;;;;8.75;2.70;;;;;;;32.55;36.00;96389.72;5054835;28;20078;-64
2021/07/11 06:24:05;;;;;;;4.38;3.00;;;;;;;32.65;38.67;96390.16;5055093;28;20018;-64
2021/07/11 06:26:30;;;;;;;7.07;2.97;;;;;;;32.67;36.05;96396.22;5055000;28;20383;-68
2021/07/11 06:28:57;;;;;;;4.85;3.40;;;;;;;32.71;33.95;96392.06;5054865;28;20078;-64
2021/07/11 06:31:23;;;;;;;9.13;3.70;;;;;;;32.28;33.97;96396.66;5054842;28;20029;-67
2021/07/11 06:33:48;;;;;;;5.40;3.55;;;;;;;32.09;33.50;96397.38;5054741;28;20478;-64
2021/07/11 06:36:14;;;;;;;7.50;2.70;;;;;;;31.94;35.45;96392.94;5054798;28;20028;-67
2021/07/11 06:38:39;;;;;;;9.90;3.50;;;;;;;31.70;35.69;96395.03;5054695;28;20356;-66
2021/07/11 06:41:05;;;;;;;7.43;3.90;;;;;;;31.02;34.52;96388.16;5054781;28;20021;-67
2021/07/11 06:43:31;;;;;;;11.02;3.63;;;;;;;30.83;35.20;96397.75;5054698;28;20494;-65
2021/07/11 06:45:56;;;;;;;5.45;3.53;;;;;;;30.64;34.86;96386.50;5054658;28;20028;-67
2021/07/11 06:48:22;;;;;;;4.60;3.28;;;;;;;30.34;36.80;96389.25;5054412;28;20017;-67
2021/07/11 06:50:48;;;;;;;4.95;3.97;;;;;;;30.34;37.08;96391.97;5054216;28;20041;-65
2021/07/11 06:53:13;;;;;;;5.95;3.50;;;;;;;30.38;37.32;96387.84;5054589;28;20074;-68
2021/07/11 06:55:39;;;;;;;5.43;3.60;;;;;;;30.51;35.82;96390.72;5054480;28;20060;-65
2021/07/11 06:58:05;;;;;;;3.67;3.17;;;;;;;30.67;36.45;96398.78;5054371;28;20117;-65
2021/07/11 07:00:30;;;;;;;4.93;3.45;;;;;;;30.84;35.65;96392.16;5053719;28;20119;-65
2021/07/11 07:02:56;;;;;;;8.23;3.13;;;;;;;30.80;35.38;96393.56;5054258;28;20032;-67
2021/07/11 07:05:22;;;;;;;4.72;3.30;;;;;;;30.85;36.48;96395.69;5054352;28;20025;-66
2021/07/11 07:07:48;;;;;;;5.30;3.47;;;;;;;30.99;36.64;96397.50;5054360;28;20028;-64
2021/07/11 07:10:14;;;;;;;5.60;3.75;;;;;;;30.89;37.36;96396.97;5053999;28;20013;-63
2021/07/11 07:12:44;;;;;;;7.70;3.42;;;;;;;30.93;36.97;96398.25;5054280;28;20465;-65
2021/07/11 07:15:11;;;;;;;4.47;3.45;;;;;;;30.93;36.68;96406.34;5054047;28;20379;-65
2021/07/11 07:17:37;;;;;;;8.00;3.67;;;;;;;31.00;38.61;96403.75;5053994;28;20032;-64
2021/07/11 07:20:06;;;;;;;6.70;3.80;;;;;;;30.91;36.35;96399.50;5053931;28;20029;-66
2021/07/11 07:22:33;;;;;;;6.07;3.63;;;;;;;30.89;35.49;96403.22;5053670;28;20044;-67
2021/07/11 07:24:59;;;;;;;4.63;3.30;;;;;;;30.78;37.49;96395.59;5053719;28;20024;-64
2021/07/11 07:27:24;;;;;;;8.95;3.70;;;;;;;30.58;38.17;96395.34;5053861;28;20025;-63
2021/07/11 07:29:50;;;;;;;5.00;3.58;;;;;;;30.69;36.48;96396.72;5053928;28;20017;-66
2021/07/11 07:32:15;;;;;;;8.60;3.30;;;;;;;30.95;36.57;96395.38;5053620;28;20033;-65
2021/07/11 07:34:41;;;;;;;5.07;3.13;;;;;;;30.89;34.97;96394.28;5053647;28;20021;-67
2021/07/11 07:37:08;;;;;;;8.10;3.35;;;;;;;30.97;36.64;96398.72;5053587;28;20052;-64
2021/07/11 07:39:33;;;;;;;8.07;4.47;;;;;;;31.05;34.64;96398.59;5053600;28;20059;-65
2021/07/11 07:41:59;;;;;;;6.57;3.35;;;;;;;31.41;34.32;96394.16;5053548;28;20374;-66
2021/07/11 07:44:24;;;;;;;4.70;3.80;;;;;;;31.71;34.04;96395.84;5053464;28;20017;-67
2021/07/11 07:46:50;;;;;;;6.25;3.47;;;;;;;32.02;33.54;96406.28;5053467;28;20061;-64
2021/07/11 07:49:16;;;;;;;6.13;3.75;;;;;;;31.93;33.26;96412.06;5053271;28;20422;-65
2021/07/11 07:51:41;;;;;;;7.07;4.22;;;;;;;31.46;33.87;96397.13;5052202;28;20360;-68
2021/07/11 07:54:08;;;;;;;5.65;4.07;;;;;;;31.78;34.32;96400.28;5052955;28;20449;-66
2021/07/11 07:56:33;;;;;;;12.23;5.78;;;;;;;31.82;35.13;96402.59;5053205;28;20068;-63
2021/07/11 07:58:59;;;;;;;7.18;4.15;;;;;;;31.71;35.06;96398.53;5053157;28;20108;-66
2021/07/11 08:01:25;;;;;;;7.00;3.97;;;;;;;31.68;34.28;96396.25;5053188;28;20420;-67
2021/07/11 08:03:50;;;;;;;5.72;3.75;;;;;;;31.61;34.57;96401.59;5053347;28;20108;-68
2021/07/11 08:06:16;;;;;;;9.77;4.97;;;;;;;31.78;36.44;96402.97;5053116;28;20036;-69
2021/07/11 08:08:42;;;;;;;7.28;4.07;;;;;;;31.99;33.15;96397.75;5053246;28;20374;-66
2021/07/11 08:11:07;;;;;;;9.32;3.72;;;;;;;31.84;33.54;96393.25;5052310;28;20025;-67
2021/07/11 08:13:35;;;;;;;7.13;4.25;;;;;;;31.94;34.29;96390.22;5053024;28;20375;-65
2021/07/11 08:16:02;;;;;;;6.13;4.45;;;;;;;32.04;35.27;96389.88;5053104;28;20032;-64
2021/07/11 08:18:28;;;;;;;10.68;3.78;;;;;;;32.12;32.66;96386.97;5053020;28;20059;-68
2021/07/11 08:20:53;;;;;;;4.80;4.38;;;;;;;31.86;33.19;96383.06;5053033;28;20064;-66
2021/07/11 08:23:19;;;;;;;10.98;4.47;;;;;;;32.08;34.45;96382.19;5052969;28;20018;-64
2021/07/11 08:25:45;;;;;;;9.18;4.45;;;;;;;32.39;32.80;96378.19;5052896;28;20500;-65
2021/07/11 08:28:10;;;;;;;10.75;5.07;;;;;;;32.77;33.74;96385.84;5052885;28;20025;-64
2021/07/11 08:30:36;;;;;;;6.15;4.00;;;;;;;32.83;33.13;96388.78;5053036;28;20028;-68
2021/07/11 08:33:03;;;;;;;8.20;3.72;;;;;;;33.13;32.15;96381.16;5052833;28;20483;-67
2021/07/11 08:35:28;;;;;;;5.57;3.97;;;;;;;33.32;31.74;96372.41;5052762;28;20017;-65
2021/07/11 08:37:54;;;;;;;7.93;4.40;;;;;;;33.60;31.78;96374.09;5052816;28;20021;-64
2021/07/11 08:40:20;;;;;;;7.68;4.00;;;;;;;33.91;30.48;96372.59;5052882;28;20056;-64
2021/07/11 08:42:50;;;;;;;4.70;3.88;;;;;;;34.11;29.76;96372.56;5052803;28;20032;-66
2021/07/11 08:45:15;;;;;;;8.27;4.05;;;;;;;33.96;29.91;96371.97;5052778;28;20029;-64
2021/07/11 08:47:41;;;;;;;7.22;3.92;;;;;;;33.76;30.42;96361.97;5052680;28;20103;-63
2021/07/11 08:50:10;;;;;;;5.60;4.15;;;;;;;33.67;30.08;96371.41;5052411;28;20053;-66
2021/07/11 08:52:37;;;;;;;7.28;4.47;;;;;;;33.60;30.26;96361.38;5052715;28;20389;-66
2021/07/11 08:55:12;;;;;;;6.00;4.20;;;;;;;33.81;30.26;96361.34;5052688;28;20434;-61
2021/07/11 08:57:38;;;;;;;8.93;4.53;;;;;;;33.58;29.66;96365.31;5052769;28;20055;-63
2021/07/11 09:00:06;;;;;;;6.38;4.75;;;;;;;33.36;29.72;96360.13;5052595;28;20025;-64
2021/07/11 09:02:32;;;;;;;9.07;4.38;;;;;;;32.78;31.81;96365.03;5051248;28;20082;-63
2021/07/11 09:04:59;;;;;;;5.80;3.92;;;;;;;32.44;31.00;96361.34;5052692;28;20383;-65
2021/07/11 09:07:25;;;;;;;6.05;4.47;;;;;;;32.57;31.92;96350.59;5052592;28;20021;-63
2021/07/11 09:09:55;;;;;;;4.38;3.97;;;;;;;32.94;31.39;96347.56;5052549;28;20108;-64
2021/07/11 09:12:21;;;;;;;7.65;4.38;;;;;;;33.24;30.53;96347.19;5052485;28;20067;-65
2021/07/11 09:14:47;;;;;;;8.35;4.28;;;;;;;33.35;30.67;96342.19;5052468;28;20029;-66
2021/07/11 09:17:13;;;;;;;5.00;4.15;;;;;;;33.42;29.78;96334.91;5052464;28;20109;-65
2021/07/11 09:19:45;;;;;;;7.10;4.13;;;;;;;33.52;31.63;96342.59;5052480;28;20033;-65
2021/07/11 09:22:16;;;;;;;6.75;4.57;;;;;;;33.18;28.78;96341.75;5052390;28;20025;-67
2021/07/11 09:24:53;;;;;;;7.05;4.78;;;;;;;32.95;32.33;96340.28;5056067;28;20379;-67
2021/07/11 09:27:25;;;;;;;7.15;4.40;;;;;;;32.62;31.61;96341.84;5056043;28;20029;-61
2021/07/11 09:29:54;;;;;;;6.70;3.97;;;;;;;32.14;31.50;96336.25;5056083;28;20029;-64
2021/07/11 09:32:33;;;;;;;4.90;4.00;;;;;;;31.75;33.42;96340.34;5056114;28;20028;-66
2021/07/11 09:35:13;;;;;;;8.02;4.55;;;;;;;31.64;35.97;96342.59;5056117;28;20095;-65
2021/07/11 09:37:41;;;;;;;5.60;4.43;;;;;;;31.83;36.77;96336.66;5055963;28;20475;-67
2021/07/11 09:40:08;;;;;;;7.85;5.18;;;;;;;32.22;35.42;96337.94;5055847;28;20744;-65
2021/07/11 09:42:39;;;;;;;4.35;3.95;;;;;;;32.71;33.13;96339.81;5055742;28;20052;-64
2021/07/11 09:45:13;;;;;;;8.27;4.40;;;;;;;32.89;30.87;96336.50;5055861;28;20035;-65
2021/07/11 09:47:39;;;;;;;6.07;4.57;;;;;;;32.73;31.80;96340.44;5055772;28;20032;-62
2021/07/11 09:50:09;;;;;;;6.68;4.45;;;;;;;32.45;34.29;96342.22;5055476;28;20049;-62
2021/07/11 09:52:36;;;;;;;;;;;;;;;32.00;32.27;96337.22;5056115;28;20052;-66
2021/07/11 09:55:32;;;;;;;5.05;4.30;;;;;;;31.72;31.56;96327.28;5055675;28;20289;-68
2021/07/11 09:58:06;;;;;;;10.50;4.57;;;;;;;31.60;31.48;96327.00;5051053;28;20033;-64
2021/07/11 10:00:35;;;;;;;9.48;5.18;;;;;;;31.47;34.58;96328.56;5055533;28;20021;-65
2021/07/11 10:03:05;;;;;;;7.63;4.82;;;;;;;31.33;33.95;96332.97;5055326;28;20124;-64
2021/07/11 10:05:32;;;;;;;6.65;4.85;;;;;;;30.73;32.74;96328.69;5055320;28;20360;-63
2021/07/11 10:07:59;;;;;;;6.30;4.68;;;;;;;30.48;34.27;96330.91;5055321;28;20398;-65
2021/07/11 10:10:30;;;;;;;7.05;4.53;;;;;;;30.27;37.29;96324.44;5055417;28;20364;-65
2021/07/11 10:12:57;;;;;;;6.85;5.07;;;;;;;30.49;39.35;96333.41;5055315;28;20104;-65
2021/07/11 10:15:26;;;;;;;7.85;4.97;;;;;;;30.64;36.06;96335.25;5055162;28;20586;-63
2021/07/11 10:18:13;;;;;;;6.20;4.47;;;;;;;31.04;34.89;96331.28;5055203;28;20025;-64
2021/07/11 10:20:50;;;;;;;5.47;4.72;;;;;;;31.43;34.17;96331.84;5054921;28;20099;-65
2021/07/11 10:23:33;;;;;;;8.13;5.13;;;;;;;31.19;33.32;96320.41;5055142;28;20056;-68
2021/07/11 10:26:05;;;;;;;8.95;5.20;;;;;;;31.13;32.50;96322.88;5054888;28;20032;-67
2021/07/11 10:28:37;;;;;;;5.07;4.55;;;;;;;31.34;32.72;96318.47;5054937;28;20024;-61
2021/07/11 10:31:04;;;;;;;5.22;4.72;;;;;;;31.59;36.31;96317.19;5054985;28;20071;-64
2021/07/11 10:33:41;;;;;;;7.38;5.07;;;;;;;31.76;34.88;96310.44;5054749;28;20123;-67
2021/07/11 10:36:07;;;;;;;6.93;5.15;;;;;;;31.74;33.04;96312.53;5054183;28;20061;-62
2021/07/11 10:38:36;;;;;;;5.63;4.80;;;;;;;31.57;34.04;96306.56;5054722;28;20052;-64
2021/07/11 10:41:10;;;;;;;5.40;4.20;;;;;;;31.27;34.92;96310.28;5054055;28;20033;-63
2021/07/11 10:43:37;;;;;;;5.43;4.25;;;;;;;31.06;36.59;96313.84;5044496;28;20025;-66
2021/07/11 10:46:03;;;;;;;9.73;4.85;;;;;;;30.79;38.17;96312.78;5041742;28;20021;-65
2021/07/11 10:48:30;;;;;;;10.18;5.55;;;;;;;30.63;38.72;96310.13;5044240;28;20031;-64
2021/07/11 10:50:57;;;;;;;10.45;6.82;;;;;;;30.56;38.68;96313.75;5034419;28;20042;-63
2021/07/11 10:53:22;;;;;;;14.82;5.82;;;;;;;30.60;39.72;96317.75;5034512;28;20025;-64
2021/07/11 10:55:48;;;;;;;6.45;4.80;;;;;;;30.59;40.42;96318.78;5034586;28;20095;-64
2021/07/11 10:58:18;;;;;;;8.60;4.35;;;;;;;30.47;40.76;96318.44;5034416;28;20034;-61
2021/07/11 11:00:46;;;;;;;7.43;4.35;;;;;;;30.47;42.51;96313.06;5033575;28;20018;-64
2021/07/11 11:03:21;;;;;;;10.25;5.70;;;;;;;30.55;43.81;96315.63;5034323;28;20026;-64
2021/07/11 11:05:51;;;;;;;7.82;4.60;;;;;;;30.61;43.00;96301.38;5034365;28;20096;-63
2021/07/11 11:08:22;;;;;;;6.18;5.03;;;;;;;30.94;41.57;96293.84;5034327;28;20025;-67
2021/07/11 11:10:53;;;;;;;7.07;4.55;;;;;;;31.40;36.63;96296.06;5034256;28;20076;-61
2021/07/11 11:13:27;;;;;;;6.90;4.57;;;;;;;31.54;35.61;96282.66;5034101;28;20476;-64
2021/07/11 11:15:53;;;;;;;6.95;4.70;;;;;;;31.47;33.69;96271.81;5034068;28;20025;-66
2021/07/11 11:18:21;;;;;;;4.57;4.13;;;;;;;31.47;33.94;96274.53;5034136;28;20021;-64
2021/07/11 11:20:53;;;;;;;10.50;4.95;;;;;;;31.34;34.30;96277.09;5033830;28;20078;-67
2021/07/11 11:23:20;;;;;;;8.38;5.25;;;;;;;31.23;36.55;96275.78;5033865;28;20021;-68
2021/07/11 11:25:46;;;;;;;7.10;5.13;;;;;;;31.09;34.04;96282.94;5033904;28;20025;-64
2021/07/11 11:28:13;;;;;;;9.52;4.97;;;;;;;30.75;38.10;96282.63;5033985;28;20475;-63
2021/07/11 11:30:41;;;;;;;9.63;5.15;;;;;;;30.41;38.66;96281.44;5033756;28;20069;-65
2021/07/11 11:33:07;;;;;;;6.07;4.78;;;;;;;29.92;40.47;96281.06;5033847;28;20071;-66
2021/07/11 11:35:36;;;;;;;7.70;5.47;;;;;;;29.57;42.96;96287.00;5033793;28;20518;-67
2021/07/11 11:38:06;;;;;;;6.65;4.88;;;;;;;29.07;40.31;96276.72;5033746;28;20063;-62